地図

経路データ

SID SEASON NUMBER BASIN SUBBASIN NAME ISO_TIME NATURE LAT LON WMO_WIND WMO_PRES WMO_AGENCY TRACK_TYPE DIST2LAND LANDFALL IFLAG USA_AGENCY USA_ATCF_ID USA_LAT USA_LON USA_RECORD USA_STATUS USA_WIND USA_PRES USA_SSHS USA_R34_NE USA_R34_SE USA_R34_SW USA_R34_NW USA_R50_NE USA_R50_SE USA_R50_SW USA_R50_NW USA_R64_NE USA_R64_SE USA_R64_SW USA_R64_NW USA_POCI USA_ROCI USA_RMW USA_EYE TOKYO_LAT TOKYO_LON TOKYO_GRADE TOKYO_WIND TOKYO_PRES TOKYO_R50_DIR TOKYO_R50_LONG TOKYO_R50_SHORT TOKYO_R30_DIR TOKYO_R30_LONG TOKYO_R30_SHORT TOKYO_LAND CMA_LAT CMA_LON CMA_CAT CMA_WIND CMA_PRES HKO_LAT HKO_LON HKO_CAT HKO_WIND HKO_PRES NEWDELHI_LAT NEWDELHI_LON NEWDELHI_GRADE NEWDELHI_WIND NEWDELHI_PRES NEWDELHI_CI NEWDELHI_DP NEWDELHI_POCI REUNION_LAT REUNION_LON REUNION_TYPE REUNION_WIND REUNION_PRES REUNION_TNUM REUNION_CI REUNION_RMW REUNION_R34_NE REUNION_R34_SE REUNION_R34_SW REUNION_R34_NW REUNION_R50_NE REUNION_R50_SE REUNION_R50_SW REUNION_R50_NW REUNION_R64_NE REUNION_R64_SE REUNION_R64_SW REUNION_R64_NW BOM_LAT BOM_LON BOM_TYPE BOM_WIND BOM_PRES BOM_TNUM BOM_CI BOM_RMW BOM_R34_NE BOM_R34_SE BOM_R34_SW BOM_R34_NW BOM_R50_NE BOM_R50_SE BOM_R50_SW BOM_R50_NW BOM_R64_NE BOM_R64_SE BOM_R64_SW BOM_R64_NW BOM_ROCI BOM_POCI BOM_EYE BOM_POS_METHOD BOM_PRES_METHOD NADI_LAT NADI_LON NADI_CAT NADI_WIND NADI_PRES WELLINGTON_LAT WELLINGTON_LON WELLINGTON_WIND WELLINGTON_PRES DS824_LAT DS824_LON DS824_STAGE DS824_WIND DS824_PRES TD9636_LAT TD9636_LON TD9636_STAGE TD9636_WIND TD9636_PRES TD9635_LAT TD9635_LON TD9635_WIND TD9635_PRES TD9635_ROCI NEUMANN_LAT NEUMANN_LON NEUMANN_CLASS NEUMANN_WIND NEUMANN_PRES MLC_LAT MLC_LON MLC_CLASS MLC_WIND MLC_PRES USA_GUST BOM_GUST BOM_GUST_PER REUNION_GUST REUNION_GUST_PER USA_SEAHGT USA_SEARAD_NE USA_SEARAD_SE USA_SEARAD_SW USA_SEARAD_NW STORM_SPEED STORM_DIR
1920152N10134 1920 17 WP MM NOT_NAMED 1920-05-31 10:00:00 NR 9.70000 134.000 main 844 833 __________O___ -1 9.70000 134.000 7 2 290
1920152N10134 1920 17 WP MM NOT_NAMED 1920-05-31 12:00:00 NR 9.71895 133.941 main 833 826 __________P___ -1 9.71895 133.941 7 2 291
1920152N10134 1920 17 WP MM NOT_NAMED 1920-05-31 15:00:00 NR 9.76528 133.832 main 826 815 __________P___ -1 9.76528 133.832 7 3 297
1920152N10134 1920 17 WP MM NOT_NAMED 1920-05-31 18:00:00 NR 9.85764 133.666 main 818 790 __________P___ -1 9.85764 133.666 7 5 302
1920152N10134 1920 17 WP MM NOT_NAMED 1920-05-31 21:00:00 NR 10.0236 133.411 main 790 782 __________P___ -1 10.0236 133.411 7 7 304
1920152N10134 1920 17 WP MM NOT_NAMED 1920-05-31 22:00:00 NR 10.1000 133.300 main 782 754 __________O___ -1 10.1000 133.300 7 9 306
1920152N10134 1920 17 WP MM NOT_NAMED 1920-06-01 00:00:00 NR 10.2875 133.036 main 754 718 __________P___ -1 10.2875 133.036 7 11 306
1920152N10134 1920 17 WP MM NOT_NAMED 1920-06-01 03:00:00 NR 10.6379 132.558 main 718 666 __________P___ -1 10.6379 132.558 7 13 307
1920152N10134 1920 17 WP MM NOT_NAMED 1920-06-01 06:00:00 NR 11.0408 132.022 main 666 623 __________P___ -1 11.0408 132.022 7 13 308
1920152N10134 1920 17 WP MM NOT_NAMED 1920-06-01 09:00:00 NR 11.4616 131.476 main 624 603 __________P___ -1 11.4616 131.476 7 14 308
1920152N10134 1920 17 WP MM NOT_NAMED 1920-06-01 10:00:00 NR 11.6000 131.300 main 603 574 __________O___ -1 11.6000 131.300 7 13 308
1920152N10134 1920 17 WP MM NOT_NAMED 1920-06-01 12:00:00 NR 11.8473 130.973 main 574 529 __________P___ -1 11.8473 130.973 7 12 308
1920152N10134 1920 17 WP MM NOT_NAMED 1920-06-01 15:00:00 NR 12.2183 130.494 main 529 491 __________P___ -1 12.2183 130.494 7 12 309
1920152N10134 1920 17 WP MM NOT_NAMED 1920-06-01 18:00:00 NR 12.5921 130.042 main 491 454 __________P___ -1 12.5921 130.042 7 11 312
1920152N10134 1920 17 WP MM NOT_NAMED 1920-06-01 21:00:00 NR 12.9716 129.627 main 454 445 __________P___ -1 12.9716 129.627 7 11 314
1920152N10134 1920 17 WP MM NOT_NAMED 1920-06-01 22:00:00 NR 13.1000 129.500 main 445 430 __________O___ -1 13.1000 129.500 7 10 318
1920152N10134 1920 17 WP MM NOT_NAMED 1920-06-02 00:00:00 NR 13.3554 129.265 main 433 410 __________P___ -1 13.3554 129.265 7 10 320
1920152N10134 1920 17 WP MM NOT_NAMED 1920-06-02 03:00:00 NR 13.7449 128.951 main 415 401 __________P___ -1 13.7449 128.951 7 10 324
1920152N10134 1920 17 WP MM NOT_NAMED 1920-06-02 06:00:00 NR 14.1450 128.667 main 406 401 __________P___ -1 14.1450 128.667 7 10 326
1920152N10134 1920 17 WP MM NOT_NAMED 1920-06-02 09:00:00 NR 14.5586 128.392 main 413 405 __________P___ -1 14.5586 128.392 7 10 327
1920152N10134 1920 17 WP MM NOT_NAMED 1920-06-02 10:00:00 NR 14.7000 128.300 main 412 412 __________O___ -1 14.7000 128.300 7 10 324
1920152N10134 1920 17 WP MM NOT_NAMED 1920-06-02 12:00:00 NR 14.9703 128.087 main 417 398 __________P___ -1 14.9703 128.087 7 10 323
1920152N10134 1920 17 WP MM NOT_NAMED 1920-06-02 15:00:00 NR 15.3879 127.767 main 402 389 __________P___ -1 15.3879 127.767 7 11 325
1920152N10134 1920 17 WP MM NOT_NAMED 1920-06-02 18:00:00 NR 15.8340 127.460 main 395 390 __________P___ -1 15.8340 127.460 7 11 329
1920152N10134 1920 17 WP MM NOT_NAMED 1920-06-02 21:00:00 NR 16.3241 127.183 main 403 402 __________P___ -1 16.3241 127.183 7 11 333
1920152N10134 1920 17 WP MM NOT_NAMED 1920-06-02 22:00:00 NR 16.5000 127.100 main 410 410 __________O___ -1 16.5000 127.100 7 12 336
1920152N10134 1920 17 WP MM NOT_NAMED 1920-06-03 00:00:00 NR 16.8793 126.921 main 427 427 __________P___ -1 16.8793 126.921 7 13 338
1920152N10134 1920 17 WP MM NOT_NAMED 1920-06-03 03:00:00 NR 17.4924 126.684 main 449 438 __________P___ -1 17.4924 126.684 7 13 342
1920152N10134 1920 17 WP MM NOT_NAMED 1920-06-03 06:00:00 NR 18.1365 126.505 main 441 432 __________P___ -1 18.1365 126.505 7 13 348
1920152N10134 1920 17 WP MM NOT_NAMED 1920-06-03 09:00:00 NR 18.7864 126.409 main 434 434 __________P___ -1 18.7864 126.409 7 13 354
1920152N10134 1920 17 WP MM NOT_NAMED 1920-06-03 10:00:00 NR 19.0000 126.400 main 437 437 __________O___ -1 19.0000 126.400 7 13 0
1920152N10134 1920 17 WP MM NOT_NAMED 1920-06-03 12:00:00 NR 19.4369 126.401 main 445 448 __________P___ -1 19.4369 126.401 7 13 4
1920152N10134 1920 17 WP MM NOT_NAMED 1920-06-03 15:00:00 NR 20.0868 126.486 main 480 480 __________P___ -1 20.0868 126.486 7 13 11
1920152N10134 1920 17 WP MM NOT_NAMED 1920-06-03 18:00:00 NR 20.6997 126.657 main 527 527 __________P___ -1 20.6997 126.657 7 12 19
1920152N10134 1920 17 WP MM NOT_NAMED 1920-06-03 21:00:00 NR 21.2413 126.904 main 574 580 __________P___ -1 21.2413 126.904 7 12 24
1920152N10134 1920 17 WP MM NOT_NAMED 1920-06-03 22:00:00 NR 21.4000 127.000 main 594 594 __________O___ -1 21.4000 127.000 4 10 32
1920152N10134 1920 17 WP MM NOT_NAMED 1920-06-04 00:00:00 NR 21.6765 127.196 main 616 616 __________P___ -1 21.6765 127.196 4 10 40
1920152N10134 1920 17 WP MM NOT_NAMED 1920-06-04 03:00:00 NR 22.0156 127.547 main 636 640 __________P___ -1 22.0156 127.547 4 9 49
1920152N10134 1920 17 WP MM NOT_NAMED 1920-06-04 06:00:00 NR 22.2890 127.944 main 659 668 __________P___ -1 22.2890 127.944 4 9 56
1920152N10134 1920 17 WP MM NOT_NAMED 1920-06-04 09:00:00 NR 22.5248 128.361 main 699 695 __________P___ -1 22.5248 128.361 4 9 59
1920152N10134 1920 17 WP MM NOT_NAMED 1920-06-04 10:00:00 NR 22.6000 128.500 main 705 705 __________O___ -1 22.6000 128.500 4 8 59
1920152N10134 1920 17 WP MM NOT_NAMED 1920-06-04 12:00:00 NR 22.7241 128.724 main 721 721 __________P___ -1 22.7241 128.724 4 7 61
1920152N10134 1920 17 WP MM NOT_NAMED 1920-06-04 15:00:00 NR 22.8908 129.065 main 754 754 __________P___ -1 22.8908 129.065 4 8 61
1920152N10134 1920 17 WP MM NOT_NAMED 1920-06-04 18:00:00 NR 23.0875 129.448 main 778 788 __________P___ -1 23.0875 129.448 4 9 58
1920152N10134 1920 17 WP MM NOT_NAMED 1920-06-04 21:00:00 NR 23.3742 129.917 main 820 820 __________P___ -1 23.3742 129.917 4 11 55
1920152N10134 1920 17 WP MM NOT_NAMED 1920-06-04 22:00:00 NR 23.5000 130.100 main 837 804 __________O___ -1 23.5000 130.100 4 15 52
1920152N10134 1920 17 WP MM NOT_NAMED 1920-06-05 00:00:00 NR 23.8243 130.555 main 804 739 __________P___ -1 23.8243 130.555 4 17 51
1920152N10134 1920 17 WP MM NOT_NAMED 1920-06-05 03:00:00 NR 24.4110 131.334 main 739 674 __________P___ -1 24.4110 131.334 4 19 49
1920152N10134 1920 17 WP MM NOT_NAMED 1920-06-05 06:00:00 NR 25.0750 132.160 main 674 622 __________P___ -1 25.0750 132.160 4 20 47
1920152N10134 1920 17 WP MM NOT_NAMED 1920-06-05 09:00:00 NR 25.7695 132.956 main 622 609 __________P___ -1 25.7695 132.956 4 20 45
1920152N10134 1920 17 WP MM NOT_NAMED 1920-06-05 10:00:00 NR 26.0000 133.200 main 609 576 __________O___ -1 26.0000 133.200 4 18 42
1920152N10134 1920 17 WP MM NOT_NAMED 1920-06-05 12:00:00 NR 26.4522 133.644 main 576 551 __________P___ -1 26.4522 133.644 4 17 39
1920152N10134 1920 17 WP MM NOT_NAMED 1920-06-05 15:00:00 NR 27.1117 134.217 main 551 512 __________P___ -1 27.1117 134.217 4 16 36
1920152N10134 1920 17 WP MM NOT_NAMED 1920-06-05 18:00:00 NR 27.7553 134.708 main 512 488 __________P___ -1 27.7553 134.708 4 15 33
1920152N10134 1920 17 WP MM NOT_NAMED 1920-06-05 21:00:00 NR 28.3896 135.155 main 495 488 __________P___ -1 28.3896 135.155 4 15 32
1920152N10134 1920 17 WP MM NOT_NAMED 1920-06-05 22:00:00 NR 28.6000 135.300 main 488 __________O___ -1 28.6000 135.300 4 15 30

デジタル台風データ・検索

IBTrACS Databaseについて

本データベースは、米国NOAAが公開する1842年以降の世界の熱帯低気圧のベストトラックデータアーカイブInternational Best Track Archive for Climate Stewardship (IBTrACS)を、ウェブで閲覧しやすい形式に変換したものです。

最終更新日:2021-10-08